Time;durP1;ratioP1;P1;durP2;ratioP2;P2;SDS_P1;SDS_P2;PMS_P1;PMS_P2;Temp;Humidity;BMP_temperature;BMP_pressure;BME280_temperature;BME280_humidity;BME280_pressure;Samples;Min_cycle;Max_cycle;Signal;HPM_P1;HPM_P2
2023/07/25 00:01:50;;;;;;;1.80;1.70;;;;;;;25.33;59.33;96577.81;5074969;28;20207;-27
2023/07/25 00:04:17;;;;;;;1.47;1.37;;;;;;;25.32;59.14;96568.38;5074600;28;20247;-27
2023/07/25 00:06:44;;;;;;;1.33;1.23;;;;;;;25.29;59.52;96566.69;5072517;28;20662;-27
2023/07/25 00:09:10;;;;;;;1.50;1.40;;;;;;;25.33;59.17;96575.25;5078092;28;20199;-27
2023/07/25 00:11:37;;;;;;;1.50;1.40;;;;;;;25.33;59.61;96578.69;5079186;28;20235;-27
2023/07/25 00:14:04;;;;;;;1.77;1.67;;;;;;;25.33;59.27;96575.25;5083591;28;20257;-27
2023/07/25 00:16:30;;;;;;;1.50;1.40;;;;;;;25.32;59.15;96568.38;5074842;28;20239;-27
2023/07/25 00:18:57;;;;;;;1.57;1.47;;;;;;;25.33;59.59;96570.13;5074214;28;20227;-27
2023/07/25 00:21:23;;;;;;;1.73;1.63;;;;;;;25.34;59.35;96556.41;5080054;28;20266;-27
2023/07/25 00:23:50;;;;;;;1.50;1.40;;;;;;;25.33;59.21;96568.41;5088284;28;20242;-27
2023/07/25 00:26:17;;;;;;;1.40;1.30;;;;;;;25.31;59.42;96564.94;5076011;28;20228;-27
2023/07/25 00:28:43;;;;;;;1.60;1.50;;;;;;;25.34;59.21;96571.84;5075988;28;20198;-27
2023/07/25 00:31:10;;;;;;;1.67;1.57;;;;;;;25.32;59.64;96582.13;5076188;28;20223;-27
2023/07/25 00:33:36;;;;;;;1.70;1.60;;;;;;;25.34;59.45;96584.72;5072755;28;20197;-28
2023/07/25 00:36:03;;;;;;;1.50;1.40;;;;;;;25.33;59.58;96572.69;5086405;28;20223;-27
2023/07/25 00:38:30;;;;;;;1.50;1.40;;;;;;;25.33;59.67;96573.56;5071271;28;20669;-32
2023/07/25 00:40:56;;;;;;;1.50;1.40;;;;;;;25.33;59.37;96568.41;5070401;28;20204;-27
2023/07/25 00:43:23;;;;;;;1.40;1.30;;;;;;;25.34;59.18;96559.81;5080964;28;20698;-27
2023/07/25 00:45:50;;;;;;;1.40;1.30;;;;;;;25.34;59.60;96557.25;5074339;28;20216;-27
2023/07/25 00:48:16;;;;;;;1.60;1.50;;;;;;;25.34;59.47;96548.69;5082620;28;20198;-27
2023/07/25 00:50:44;;;;;;;1.40;1.30;;;;;;;25.35;59.17;96550.41;5070710;28;20201;-27
2023/07/25 00:53:11;;;;;;;1.50;1.40;;;;;;;25.33;59.18;96547.84;5064429;28;20279;-27
2023/07/25 00:55:37;;;;;;;1.70;1.60;;;;;;;25.34;59.23;96549.53;5056997;28;20278;-28
2023/07/25 00:58:04;;;;;;;1.53;1.43;;;;;;;25.35;59.46;96563.25;5078411;28;20323;-27
2023/07/25 01:00:31;;;;;;;1.40;1.30;;;;;;;25.36;59.29;96549.53;5062919;28;20200;-27
2023/07/25 01:02:57;;;;;;;1.50;1.40;;;;;;;25.31;59.79;96541.78;5070790;28;20212;-27
2023/07/25 01:05:24;;;;;;;1.60;1.50;;;;;;;25.34;59.42;96539.25;5074504;28;20219;-27
2023/07/25 01:07:50;;;;;;;1.57;1.47;;;;;;;25.34;59.27;96530.69;5075454;28;20251;-27
2023/07/25 01:10:17;;;;;;;1.60;1.50;;;;;;;25.35;59.64;96532.41;5084574;28;20192;-30
2023/07/25 01:12:44;;;;;;;1.60;1.50;;;;;;;25.35;59.74;96534.97;5076582;28;20592;-27
2023/07/25 01:15:10;;;;;;;1.33;1.23;;;;;;;25.35;59.26;96530.69;5079396;28;20632;-28
2023/07/25 01:17:37;;;;;;;1.53;1.43;;;;;;;25.34;59.60;96526.38;5081797;28;20204;-32
2023/07/25 01:20:05;;;;;;;1.67;1.57;;;;;;;25.33;59.48;96528.97;5079948;28;20274;-27
2023/07/25 01:22:32;;;;;;;1.30;1.20;;;;;;;25.34;59.48;96526.38;5087338;28;20199;-27
2023/07/25 01:24:58;;;;;;;1.50;1.40;;;;;;;25.34;59.52;96520.41;5063682;28;20216;-27
2023/07/25 01:27:25;;;;;;;1.40;1.30;;;;;;;25.34;59.36;96521.25;5078734;28;20873;-28
2023/07/25 01:29:51;;;;;;;1.40;1.30;;;;;;;25.35;59.52;96514.41;5080131;28;20634;-27
2023/07/25 01:32:18;;;;;;;1.40;1.30;;;;;;;25.35;59.43;96504.09;5081731;28;20511;-27
2023/07/25 01:34:44;;;;;;;1.53;1.43;;;;;;;25.31;59.51;96499.81;5084880;28;20203;-27
2023/07/25 01:37:11;;;;;;;1.53;1.43;;;;;;;25.35;59.79;96501.53;5083740;28;20305;-27
2023/07/25 01:39:38;;;;;;;1.57;1.47;;;;;;;25.33;59.93;96496.41;5073630;28;20210;-32
2023/07/25 01:42:04;;;;;;;1.30;1.20;;;;;;;25.33;59.51;96495.53;5082077;28;20258;-27
2023/07/25 01:44:31;;;;;;;1.50;1.40;;;;;;;25.31;59.58;96497.22;5075361;28;20619;-31
2023/07/25 01:46:57;;;;;;;1.20;1.20;;;;;;;25.34;59.77;96497.25;5078281;28;20221;-27
2023/07/25 01:49:24;;;;;;;1.53;1.40;;;;;;;25.34;59.54;96498.09;5079110;28;20208;-27
2023/07/25 01:51:51;;;;;;;1.40;1.30;;;;;;;25.34;59.52;96502.41;5087710;28;20204;-29
2023/07/25 01:54:17;;;;;;;1.13;1.13;;;;;;;25.31;59.82;96498.06;5070281;28;20258;-27
2023/07/25 01:56:44;;;;;;;1.40;1.30;;;;;;;25.35;59.54;96510.13;5069793;28;20229;-27
2023/07/25 01:59:16;;;;;;;1.67;1.57;;;;;;;25.35;59.81;96499.84;5083903;28;20247;-32
2023/07/25 02:01:42;;;;;;;1.30;1.20;;;;;;;25.35;59.98;96506.69;5075047;28;20253;-41
2023/07/25 02:04:09;;;;;;;1.67;1.57;;;;;;;25.35;59.80;96493.81;5084009;28;20740;-27
2023/07/25 02:06:35;;;;;;;1.50;1.40;;;;;;;25.35;59.82;96504.09;5076919;28;20702;-27
2023/07/25 02:09:02;;;;;;;1.27;1.23;;;;;;;25.34;59.83;96503.25;5073485;28;20204;-28
2023/07/25 02:11:29;;;;;;;1.20;1.20;;;;;;;25.36;59.64;96500.66;5081920;28;20203;-28
2023/07/25 02:13:56;;;;;;;1.20;1.20;;;;;;;25.35;59.65;96488.69;5082635;28;20211;-27
2023/07/25 02:16:23;;;;;;;1.40;1.30;;;;;;;25.33;59.98;96486.09;5075802;28;20302;-27
2023/07/25 02:18:49;;;;;;;1.40;1.30;;;;;;;25.33;59.99;96491.25;5070964;28;20278;-27
2023/07/25 02:21:16;;;;;;;1.40;1.30;;;;;;;25.34;59.66;96474.13;5070209;28;20195;-28
2023/07/25 02:23:42;;;;;;;1.40;1.30;;;;;;;25.34;59.88;96467.22;5085691;28;20199;-33
2023/07/25 02:26:09;;;;;;;1.37;1.27;;;;;;;25.34;59.71;96474.13;5083615;28;20229;-27
2023/07/25 02:28:36;;;;;;;1.20;1.20;;;;;;;25.34;59.63;96471.53;5066927;28;20610;-27
2023/07/25 02:31:02;;;;;;;1.30;1.20;;;;;;;25.35;60.08;96468.09;5081009;28;20444;-27
2023/07/25 02:33:29;;;;;;;1.10;1.10;;;;;;;25.34;60.03;96461.25;5079753;28;20602;-27
2023/07/25 02:35:56;;;;;;;1.27;1.17;;;;;;;25.29;59.80;96435.50;5075663;28;20741;-28
2023/07/25 02:38:23;;;;;;;1.50;1.40;;;;;;;25.33;59.66;96432.09;5078890;28;20200;-27
2023/07/25 02:40:50;;;;;;;1.43;1.33;;;;;;;25.33;59.80;96423.50;5075477;28;20732;-27
2023/07/25 02:43:16;;;;;;;1.27;1.17;;;;;;;25.34;59.74;96425.25;5079032;28;20618;-27
2023/07/25 02:45:43;;;;;;;1.40;1.30;;;;;;;25.29;59.97;96408.94;5076452;28;20223;-27
2023/07/25 02:48:09;;;;;;;1.40;1.30;;;;;;;25.33;59.83;96419.22;5081297;28;20204;-32
2023/07/25 02:50:36;;;;;;;1.30;1.20;;;;;;;25.34;59.98;96412.38;5083152;28;20260;-30
2023/07/25 02:53:03;;;;;;;1.50;1.40;;;;;;;25.34;59.78;96413.22;5071110;28;20201;-27
2023/07/25 02:55:29;;;;;;;1.50;1.40;;;;;;;25.33;59.88;96416.66;5078315;28;20475;-27
2023/07/25 02:57:56;;;;;;;7.03;1.20;;;;;;;25.34;59.71;96409.81;5070635;28;20193;-32
2023/07/25 03:00:23;;;;;;;1.50;1.40;;;;;;;25.33;59.72;96421.81;5080454;28;20690;-27
2023/07/25 03:02:50;;;;;;;1.33;1.23;;;;;;;25.33;60.12;96432.09;5079948;28;20200;-28
2023/07/25 03:05:17;;;;;;;1.30;1.20;;;;;;;25.34;59.97;96432.97;5073533;28;20223;-28
2023/07/25 03:07:44;;;;;;;1.33;1.23;;;;;;;25.34;60.30;96427.81;5069373;28;20200;-27
2023/07/25 03:10:10;;;;;;;1.30;1.20;;;;;;;25.34;59.88;96415.78;5071838;28;20662;-27
2023/07/25 03:12:37;;;;;;;1.30;1.20;;;;;;;25.35;59.89;96419.22;5073696;28;20208;-27
2023/07/25 03:15:04;;;;;;;1.33;1.23;;;;;;;25.35;60.02;96407.25;5069910;28;20223;-27
2023/07/25 03:17:31;;;;;;;1.40;1.30;;;;;;;25.34;60.24;96405.50;5065235;28;20580;-27
2023/07/25 03:19:57;;;;;;;1.47;1.33;;;;;;;25.35;59.82;96406.38;5080254;28;20201;-27
2023/07/25 03:22:24;;;;;;;1.30;1.20;;;;;;;25.35;59.97;96408.94;5065950;28;20602;-27
2023/07/25 03:24:51;;;;;;;1.20;1.10;;;;;;;25.35;60.15;96404.66;5076379;28;20348;-27
2023/07/25 03:27:18;;;;;;;1.20;1.20;;;;;;;25.36;59.97;96410.66;5072389;28;20206;-27
2023/07/25 03:29:44;;;;;;;1.33;1.23;;;;;;;25.35;59.95;96409.81;5069887;28;20578;-27
2023/07/25 03:32:11;;;;;;;1.50;1.40;;;;;;;25.37;60.30;96407.22;5067451;28;20200;-27
2023/07/25 03:34:37;;;;;;;1.00;1.00;;;;;;;25.38;60.31;96416.66;5066070;28;20203;-27
2023/07/25 03:37:04;;;;;;;1.33;1.30;;;;;;;25.37;60.43;96409.81;5074595;28;20585;-27
2023/07/25 03:39:31;;;;;;;1.23;1.13;;;;;;;25.37;59.87;96418.34;5062738;28;20197;-27
2023/07/25 03:41:57;;;;;;;1.33;1.23;;;;;;;25.38;59.83;96409.81;5068069;28;20200;-29
2023/07/25 03:44:24;;;;;;;1.23;1.17;;;;;;;25.37;59.83;96410.63;5068751;28;20567;-27
2023/07/25 03:46:51;;;;;;;1.30;1.20;;;;;;;25.37;60.30;96396.94;5063186;28;20293;-27
2023/07/25 03:49:17;;;;;;;1.03;1.03;;;;;;;25.37;60.25;96400.34;5074684;28;20196;-27
2023/07/25 03:51:44;;;;;;;1.37;1.27;;;;;;;25.36;60.29;96396.06;5075953;28;20271;-27
2023/07/25 03:54:10;;;;;;;1.30;1.20;;;;;;;25.37;60.02;96413.22;5063813;28;20204;-27
2023/07/25 03:56:37;;;;;;;1.17;1.10;;;;;;;25.38;59.84;96417.50;5065623;28;20228;-27
2023/07/25 03:59:04;;;;;;;1.43;1.10;;;;;;;25.37;59.72;96420.94;5062612;28;20197;-28
2023/07/25 04:01:30;;;;;;;1.13;1.13;;;;;;;25.37;60.04;96413.22;5055393;28;20250;-34
2023/07/25 04:03:58;;;;;;;1.10;1.10;;;;;;;25.39;59.95;96418.34;5060901;28;20205;-27
2023/07/25 04:06:24;;;;;;;1.20;1.10;;;;;;;25.38;60.35;96417.50;5060529;28;20346;-27
2023/07/25 04:08:51;;;;;;;1.17;1.17;;;;;;;25.38;59.78;96422.66;5060346;28;20207;-27
2023/07/25 04:11:17;;;;;;;1.23;1.13;;;;;;;25.39;60.16;96426.06;5062368;28;20246;-27
2023/07/25 04:13:44;;;;;;;1.23;1.13;;;;;;;25.38;59.75;96435.53;5057565;28;20667;-28
2023/07/25 04:16:11;;;;;;;1.03;1.00;;;;;;;25.39;60.28;96436.34;5066471;28;20212;-27
2023/07/25 04:18:37;;;;;;;1.07;1.07;;;;;;;25.40;60.39;96441.50;5058034;28;20615;-27
2023/07/25 04:21:04;;;;;;;1.10;1.10;;;;;;;25.36;59.97;96414.09;5061319;28;20610;-27
2023/07/25 04:23:31;;;;;;;1.40;1.30;;;;;;;25.39;60.14;96421.78;5067918;28;20226;-27
2023/07/25 04:25:57;;;;;;;1.40;1.30;;;;;;;25.40;60.30;96425.22;5074384;28;20227;-27
2023/07/25 04:28:24;;;;;;;1.10;1.10;;;;;;;25.38;60.16;96427.81;5070336;28;20244;-27
2023/07/25 04:30:50;;;;;;;1.20;1.20;;;;;;;25.34;59.98;96426.09;5071510;28;20623;-27
2023/07/25 04:33:17;;;;;;;3.40;1.40;;;;;;;25.39;59.91;96428.63;5069371;28;20204;-27
2023/07/25 04:35:45;;;;;;;4.25;1.40;;;;;;;25.38;61.37;96430.38;5066028;28;20243;-27
2023/07/25 04:38:13;;;;;;;1.50;1.40;;;;;;;25.37;60.65;96426.06;5062025;28;20368;-27
2023/07/25 04:40:40;;;;;;;5.30;1.40;;;;;;;25.40;58.58;96420.91;5069943;28;20197;-27
2023/07/25 04:43:06;;;;;;;1.13;1.13;;;;;;;25.42;56.30;96419.22;5072592;28;20201;-27
2023/07/25 04:45:33;;;;;;;1.40;1.30;;;;;;;25.49;54.43;96427.78;5082634;28;20269;-27
2023/07/25 04:47:59;;;;;;;1.53;1.43;;;;;;;25.54;52.49;96431.16;5077853;28;20593;-27
2023/07/25 04:50:26;;;;;;;1.50;1.40;;;;;;;25.57;51.05;96432.00;5070730;28;20258;-27
2023/07/25 04:52:53;;;;;;;1.67;1.57;;;;;;;25.66;50.28;96424.25;5076513;28;20200;-28
2023/07/25 04:55:19;;;;;;;1.73;1.37;;;;;;;25.72;49.31;96438.84;5058384;28;20250;-27
2023/07/25 04:57:46;;;;;;;1.37;1.20;;;;;;;25.78;48.82;96438.81;5069610;28;20200;-27
2023/07/25 05:00:13;;;;;;;1.40;1.30;;;;;;;25.83;48.06;96440.50;5067820;28;20197;-27
2023/07/25 05:02:41;;;;;;;1.37;1.27;;;;;;;25.87;47.62;96439.59;5072456;28;20215;-27
2023/07/25 05:05:08;;;;;;;1.40;1.30;;;;;;;25.92;46.85;96424.13;5073837;28;20228;-27
2023/07/25 05:07:34;;;;;;;1.50;1.40;;;;;;;25.95;46.36;96440.44;5073522;28;20200;-27
2023/07/25 05:10:01;;;;;;;1.00;1.00;;;;;;;26.00;46.15;96425.84;5073843;28;20257;-31
2023/07/25 05:12:28;;;;;;;1.30;1.20;;;;;;;26.04;45.50;96424.09;5074368;28;20694;-27
2023/07/25 05:14:54;;;;;;;1.17;1.17;;;;;;;26.08;45.19;96415.50;5080552;28;20200;-27
2023/07/25 05:17:21;;;;;;;1.17;1.17;;;;;;;26.11;44.66;96400.03;5072201;28;20197;-27
2023/07/25 05:19:47;;;;;;;1.33;1.23;;;;;;;26.15;44.42;96388.84;5076109;28;20215;-27
2023/07/25 05:22:16;;;;;;;1.13;1.10;;;;;;;26.16;44.18;96381.09;5070644;28;20196;-27
2023/07/25 05:24:42;;;;;;;1.10;1.10;;;;;;;26.18;43.80;96383.66;5072930;28;20200;-27
2023/07/25 05:27:09;;;;;;;1.25;1.15;;;;;;;26.23;43.57;96387.91;5075281;28;20220;-27
2023/07/25 05:29:36;;;;;;;1.40;1.30;;;;;;;26.24;43.41;96387.06;5070528;28;20626;-27
2023/07/25 05:32:02;;;;;;;3.88;1.38;;;;;;;26.26;43.08;96390.47;5085538;28;20203;-34
2023/07/25 05:34:29;;;;;;;1.40;1.30;;;;;;;26.29;42.81;96395.59;5072927;28;20222;-27
2023/07/25 05:36:56;;;;;;;1.77;1.23;;;;;;;26.30;42.53;96379.28;5070516;28;20783;-27
2023/07/25 05:39:22;;;;;;;1.20;1.10;;;;;;;26.30;42.15;96375.84;5083657;28;20200;-27
2023/07/25 05:41:49;;;;;;;1.33;1.23;;;;;;;26.33;42.28;96374.13;5078353;28;20203;-27
2023/07/25 05:44:15;;;;;;;1.20;1.10;;;;;;;26.36;41.87;96374.09;5071960;28;20196;-28
2023/07/25 05:46:42;;;;;;;1.10;1.10;;;;;;;26.37;41.73;96365.50;5067102;28;20224;-27
2023/07/25 05:49:09;;;;;;;1.30;1.20;;;;;;;26.39;41.53;96347.44;5069479;28;20560;-27
2023/07/25 05:51:35;;;;;;;1.35;1.23;;;;;;;26.40;41.49;96346.56;5075169;28;20200;-27
2023/07/25 05:54:02;;;;;;;1.33;1.23;;;;;;;26.40;41.30;96344.84;5074644;28;20241;-27
2023/07/25 05:56:29;;;;;;;3.55;1.20;;;;;;;26.43;41.16;96346.53;5068530;28;20226;-27
2023/07/25 05:58:55;;;;;;;1.25;1.15;;;;;;;26.44;40.95;96351.69;5081366;28;20196;-31
2023/07/25 06:01:22;;;;;;;1.52;1.20;;;;;;;26.45;40.85;96339.66;5066029;28;20662;-27
2023/07/25 06:03:49;;;;;;;1.30;1.20;;;;;;;26.47;40.65;96335.38;5060249;28;20231;-27
2023/07/25 06:06:15;;;;;;;1.30;1.20;;;;;;;26.47;40.54;96325.88;5072177;28;20220;-27
2023/07/25 06:08:42;;;;;;;1.27;1.20;;;;;;;26.49;40.35;96323.31;5072174;28;20200;-34
2023/07/25 06:11:08;;;;;;;1.35;1.25;;;;;;;26.50;40.35;96319.88;5065207;28;20207;-27
2023/07/25 06:13:35;;;;;;;1.25;1.15;;;;;;;26.44;40.10;96310.47;5070416;28;20617;-27
2023/07/25 06:16:02;;;;;;;1.10;1.10;;;;;;;26.51;40.13;96312.13;5073306;28;20265;-27
2023/07/25 06:18:28;;;;;;;1.25;1.15;;;;;;;26.50;39.98;96318.13;5070908;28;20280;-27
2023/07/25 06:20:55;;;;;;;1.33;1.25;;;;;;;26.52;39.80;96321.56;5059723;28;20617;-27
2023/07/25 06:23:21;;;;;;;1.17;1.08;;;;;;;26.53;39.73;96314.69;5065572;28;20205;-30
2023/07/25 06:25:48;;;;;;;1.83;1.08;;;;;;;26.54;39.68;96317.25;5077754;28;20215;-27
2023/07/25 06:28:15;;;;;;;1.45;1.35;;;;;;;26.55;39.46;96318.94;5074425;28;20200;-27
2023/07/25 06:30:42;;;;;;;1.30;1.20;;;;;;;26.54;39.52;96327.56;5080729;28;20662;-27
2023/07/25 06:33:10;;;;;;;1.20;1.10;;;;;;;26.53;39.49;96315.53;5069727;28;20200;-27
2023/07/25 06:35:36;;;;;;;1.30;1.20;;;;;;;26.57;39.13;96326.66;5074609;28;20588;-27
2023/07/25 06:38:03;;;;;;;1.20;1.20;;;;;;;26.58;39.08;96325.78;5077170;28;20253;-27
2023/07/25 06:40:29;;;;;;;1.40;1.30;;;;;;;26.57;38.96;96327.53;5072784;28;20201;-27
2023/07/25 06:42:56;;;;;;;1.48;1.33;;;;;;;26.56;38.82;96322.41;5078312;28;20196;-27
2023/07/25 06:45:22;;;;;;;1.27;1.17;;;;;;;26.59;38.75;96320.63;5082543;28;20643;-27
2023/07/25 06:47:49;;;;;;;1.35;1.25;;;;;;;26.60;38.72;96324.06;5072885;28;20200;-27
2023/07/25 06:50:16;;;;;;;1.27;1.17;;;;;;;26.59;38.77;96318.03;5073799;28;20592;-27
2023/07/25 06:52:42;;;;;;;1.10;1.10;;;;;;;26.60;38.57;96309.47;5078193;28;20199;-27
2023/07/25 06:55:09;;;;;;;1.20;1.10;;;;;;;26.60;38.63;96290.56;5084486;28;20200;-27
2023/07/25 06:57:36;;;;;;;1.13;1.02;;;;;;;26.62;38.39;96294.84;5069791;28;20193;-27
2023/07/25 07:00:03;;;;;;;1.38;1.27;;;;;;;26.61;38.53;96287.97;5072451;28;20250;-27
2023/07/25 07:02:29;;;;;;;1.40;1.30;;;;;;;26.63;38.25;96295.72;5073355;28;20215;-27
2023/07/25 07:04:56;;;;;;;1.20;1.10;;;;;;;26.64;38.26;96297.41;5079226;28;20227;-27
2023/07/25 07:07:24;;;;;;;2.05;1.50;;;;;;;26.64;38.29;96298.28;5084947;28;20269;-27
2023/07/25 07:09:50;;;;;;;1.40;1.30;;;;;;;26.64;38.25;96303.44;5075263;28;20196;-27
2023/07/25 07:12:17;;;;;;;1.65;1.33;;;;;;;26.65;38.15;96307.72;5072865;28;20203;-27
2023/07/25 07:14:43;;;;;;;1.30;1.20;;;;;;;26.65;38.06;96315.44;5074077;28;20242;-27
2023/07/25 07:17:10;;;;;;;1.30;1.20;;;;;;;26.61;38.07;96310.28;5080502;28;20632;-27
2023/07/25 07:19:37;;;;;;;1.38;1.27;;;;;;;26.54;37.92;96291.47;5080735;28;20200;-27
2023/07/25 07:22:04;;;;;;;1.23;1.13;;;;;;;26.67;37.86;96324.03;5072164;28;20246;-27
2023/07/25 07:24:30;;;;;;;1.92;1.30;;;;;;;26.64;39.35;96318.91;5073644;28;20200;-27
2023/07/25 07:26:57;;;;;;;2.78;1.50;;;;;;;26.65;39.85;96325.75;5079683;28;20759;-27
2023/07/25 07:29:23;;;;;;;3.13;1.42;;;;;;;26.61;40.21;96328.34;5069828;28;20208;-27
2023/07/25 07:31:50;;;;;;;1.40;1.30;;;;;;;26.57;40.62;96334.41;5080198;28;20250;-29
2023/07/25 07:34:17;;;;;;;1.50;1.40;;;;;;;26.52;40.85;96337.03;5080512;28;20228;-29
2023/07/25 07:36:44;;;;;;;1.30;1.20;;;;;;;26.48;41.41;96331.91;5085742;28;20215;-27
2023/07/25 07:39:11;;;;;;;1.60;1.50;;;;;;;26.44;41.70;96333.66;5071675;28;20257;-28
2023/07/25 07:41:37;;;;;;;1.27;1.20;;;;;;;26.41;42.10;96331.09;5079955;28;20214;-27
2023/07/25 07:44:04;;;;;;;1.48;1.38;;;;;;;26.38;42.29;96331.13;5071497;28;20555;-27
2023/07/25 07:46:31;;;;;;;1.40;1.30;;;;;;;26.33;42.58;96335.47;5080226;28;20231;-27
2023/07/25 07:48:58;;;;;;;1.10;1.10;;;;;;;26.31;42.76;96339.78;5077811;28;20192;-27
2023/07/25 07:51:25;;;;;;;1.40;1.30;;;;;;;26.30;43.13;96338.09;5071885;28;20204;-27
2023/07/25 07:53:52;;;;;;;1.60;1.40;;;;;;;26.25;43.41;96333.81;5085656;28;20196;-27
2023/07/25 07:56:19;;;;;;;2.05;1.50;;;;;;;26.23;43.53;96336.41;5079662;28;20269;-28
2023/07/25 07:58:46;;;;;;;2.03;1.45;;;;;;;26.23;43.88;96336.41;5075238;28;20191;-27
2023/07/25 08:01:21;;;;;;;1.35;1.25;;;;;;;26.19;44.17;96331.28;5072738;28;20200;-28
2023/07/25 08:03:48;;;;;;;1.63;1.42;;;;;;;26.16;44.52;96334.75;5072149;28;20573;-27
2023/07/25 08:06:14;;;;;;;3.00;1.48;;;;;;;26.12;44.76;96332.22;5083428;28;20216;-27
2023/07/25 08:08:41;;;;;;;1.90;1.38;;;;;;;26.14;44.58;96351.91;5079719;28;20201;-27
2023/07/25 08:11:08;;;;;;;2.55;1.40;;;;;;;26.13;44.92;96349.34;5075555;28;20257;-27
2023/07/25 08:13:34;;;;;;;5.85;1.92;;;;;;;26.11;45.15;96348.53;5075622;28;20212;-27
2023/07/25 08:16:01;;;;;;;2.75;1.63;;;;;;;26.10;45.27;96344.22;5085226;28;20220;-27
2023/07/25 08:18:27;;;;;;;4.55;1.70;;;;;;;26.08;45.29;96339.09;5074010;28;20222;-27
2023/07/25 08:20:55;;;;;;;4.72;1.70;;;;;;;26.08;45.74;96335.69;5076293;28;20195;-28
2023/07/25 08:23:22;;;;;;;5.53;1.65;;;;;;;26.04;45.65;96334.84;5075632;28;20205;-30
2023/07/25 08:25:49;;;;;;;3.83;1.92;;;;;;;26.00;46.17;96328.00;5078646;28;20220;-27
2023/07/25 08:28:16;;;;;;;4.28;1.80;;;;;;;26.02;46.14;96320.28;5067676;28;20200;-27
2023/07/25 08:30:43;;;;;;;4.27;1.80;;;;;;;25.99;46.32;96316.00;5079872;28;20192;-27
2023/07/25 08:33:12;;;;;;;3.85;1.80;;;;;;;26.00;46.37;96315.16;5081419;28;20195;-27
2023/07/25 08:35:39;;;;;;;3.87;2.03;;;;;;;26.01;46.63;96328.84;5071682;28;20760;-27
2023/07/25 08:38:09;;;;;;;3.72;1.65;;;;;;;25.98;46.80;96315.97;5077332;28;20282;-30
2023/07/25 08:40:35;;;;;;;3.28;1.50;;;;;;;25.98;46.85;96313.38;5082014;28;20242;-27
2023/07/25 08:43:03;;;;;;;3.80;1.98;;;;;;;25.95;46.98;96313.41;5077383;28;20257;-27
2023/07/25 08:45:30;;;;;;;3.25;1.60;;;;;;;25.95;46.99;96319.44;5072617;28;20219;-27
2023/07/25 08:47:57;;;;;;;3.75;2.15;;;;;;;25.94;47.25;96309.13;5082798;28;20586;-27
2023/07/25 08:50:24;;;;;;;5.25;1.98;;;;;;;25.93;47.08;96318.56;5073316;28;20208;-27
2023/07/25 08:52:52;;;;;;;4.32;1.67;;;;;;;25.93;47.46;96310.84;5057073;28;20612;-28
2023/07/25 08:55:19;;;;;;;3.13;1.77;;;;;;;25.93;47.41;96316.00;5074870;28;20710;-27
2023/07/25 08:57:46;;;;;;;3.60;1.80;;;;;;;25.92;47.57;96316.88;5079089;28;20219;-27
2023/07/25 09:00:13;;;;;;;2.03;1.43;;;;;;;25.92;47.56;96318.59;5053400;28;20628;-28
2023/07/25 09:02:40;;;;;;;2.88;1.73;;;;;;;25.89;47.84;96311.75;5081546;28;20204;-27
2023/07/25 09:05:07;;;;;;;2.53;1.60;;;;;;;25.88;47.87;96312.63;5081886;28;20192;-27
2023/07/25 09:07:34;;;;;;;3.47;1.80;;;;;;;25.87;48.02;96318.63;5084419;28;20227;-27
2023/07/25 09:10:00;;;;;;;2.50;1.47;;;;;;;25.85;47.93;96317.78;5076531;28;20245;-27
2023/07/25 09:12:27;;;;;;;3.10;1.50;;;;;;;25.85;48.28;96322.94;5077867;28;20200;-27
2023/07/25 09:14:54;;;;;;;2.05;1.63;;;;;;;25.85;48.20;96333.25;5086130;28;20456;-27
2023/07/25 09:17:21;;;;;;;1.80;1.40;;;;;;;25.85;48.25;96329.78;5085260;28;20199;-28
2023/07/25 09:19:47;;;;;;;2.55;1.67;;;;;;;25.84;48.54;96318.63;5087224;28;20203;-27
2023/07/25 09:22:28;;;;;;;2.15;1.70;;;;;;;25.85;48.35;96314.34;5091617;28;20290;-27
2023/07/25 09:24:54;;;;;;;2.55;1.42;;;;;;;25.84;48.88;96320.38;5080659;28;20196;-27
2023/07/25 09:27:21;;;;;;;2.55;1.60;;;;;;;25.81;48.94;96307.53;5068143;28;20228;-27
2023/07/25 09:29:52;;;;;;;1.50;1.10;;;;;;;25.82;48.85;96312.66;5072514;28;20222;-28
2023/07/25 09:32:24;;;;;;;3.25;1.40;;;;;;;25.83;48.79;96331.50;5074106;28;20636;-28
2023/07/25 09:35:11;;;;;;;1.83;1.63;;;;;;;25.83;48.91;96365.84;5073073;28;20211;-27
2023/07/25 09:37:37;;;;;;;2.10;1.40;;;;;;;25.81;49.08;96359.84;5071967;28;20192;-28
2023/07/25 09:40:10;;;;;;;2.17;1.30;;;;;;;25.83;49.31;96367.56;5072194;28;20581;-27
2023/07/25 09:42:43;;;;;;;2.00;1.70;;;;;;;25.81;48.86;96356.44;5072863;28;20219;-33
2023/07/25 09:45:11;;;;;;;3.83;1.98;;;;;;;25.83;49.39;96349.53;5059188;28;20203;-27
2023/07/25 09:47:38;;;;;;;2.67;1.63;;;;;;;25.82;49.13;96348.69;5073088;28;20227;-27
2023/07/25 09:50:05;;;;;;;2.17;1.43;;;;;;;25.82;49.14;96343.56;5070529;28;20658;-27
2023/07/25 09:52:42;;;;;;;2.35;1.77;;;;;;;25.79;49.45;96338.44;5066287;28;20223;-28
2023/07/25 09:55:09;;;;;;;2.40;1.60;;;;;;;25.80;49.29;96341.84;5066401;28;20200;-27
2023/07/25 09:57:35;;;;;;;2.70;1.57;;;;;;;25.80;49.31;96342.69;5058896;28;20196;-27
2023/07/25 10:00:03;;;;;;;2.73;1.50;;;;;;;25.81;49.19;96343.56;5071316;28;20230;-27
2023/07/25 10:02:30;;;;;;;1.47;1.30;;;;;;;25.81;49.41;96359.00;5071891;28;20202;-28
2023/07/25 10:04:56;;;;;;;1.80;1.40;;;;;;;25.80;49.71;96353.00;5064543;28;20208;-27
2023/07/25 10:07:24;;;;;;;3.55;1.48;;;;;;;25.80;49.50;96352.13;5045132;28;20212;-27
2023/07/25 10:09:51;;;;;;;1.63;1.25;;;;;;;25.79;49.55;96345.28;5051175;28;20287;-27
2023/07/25 10:12:18;;;;;;;1.98;1.40;;;;;;;25.79;49.76;96351.28;5075161;28;20195;-27
2023/07/25 10:14:45;;;;;;;3.22;1.40;;;;;;;25.79;49.78;96353.00;5075241;28;20196;-27
2023/07/25 10:17:11;;;;;;;1.67;1.50;;;;;;;25.77;49.47;96347.00;5081925;28;20218;-27
2023/07/25 10:19:51;;;;;;;2.25;1.30;;;;;;;25.79;49.79;96353.00;5067061;28;20204;-34
2023/07/25 10:22:41;;;;;;;1.63;1.52;;;;;;;25.79;50.06;96358.16;5072467;28;20242;-28
2023/07/25 10:25:17;;;;;;;1.85;1.50;;;;;;;25.77;49.65;96359.88;5068704;28;20193;-27
2023/07/25 10:27:44;;;;;;;2.25;1.60;;;;;;;25.75;50.09;96352.16;5067778;28;20227;-28
2023/07/25 10:30:21;;;;;;;1.40;1.30;;;;;;;25.76;49.99;96355.59;5082240;28;20251;-37
2023/07/25 10:32:50;;;;;;;2.13;1.37;;;;;;;25.75;50.07;96365.03;5071899;28;20239;-27
2023/07/25 10:35:17;;;;;;;1.50;1.40;;;;;;;25.76;50.00;96387.34;5073796;28;20343;-28
2023/07/25 10:37:44;;;;;;;1.48;1.38;;;;;;;25.77;50.09;96406.19;5060421;28;20196;-27
2023/07/25 10:40:15;;;;;;;2.40;1.50;;;;;;;25.74;50.09;96413.94;5078850;28;20196;-27
2023/07/25 10:42:49;;;;;;;1.52;1.42;;;;;;;25.76;49.89;96420.81;5067979;28;20208;-27
2023/07/25 10:45:32;;;;;;;1.40;1.23;;;;;;;25.76;50.16;96400.22;5074068;28;20242;-27
2023/07/25 10:48:02;;;;;;;1.30;1.20;;;;;;;25.75;50.07;96401.06;5065296;28;20235;-27
2023/07/25 10:50:53;;;;;;;1.50;1.40;;;;;;;25.72;50.27;96408.78;5076667;28;20570;-28
2023/07/25 10:53:24;;;;;;;2.03;1.57;;;;;;;25.74;50.19;96406.19;5075693;28;20225;-27
2023/07/25 10:56:03;;;;;;;1.60;1.50;;;;;;;25.75;50.31;96411.34;5083817;28;20231;-27
2023/07/25 10:58:37;;;;;;;1.30;1.20;;;;;;;25.74;50.39;96416.50;5075277;28;20199;-28
2023/07/25 11:01:04;;;;;;;1.47;1.30;;;;;;;25.74;50.50;96419.94;5078590;28;20263;-28
2023/07/25 11:03:35;;;;;;;1.60;1.40;;;;;;;25.70;50.20;96392.53;5084572;28;20200;-27
2023/07/25 11:06:08;;;;;;;1.40;1.30;;;;;;;25.75;50.38;96398.47;5068293;28;20220;-27
2023/07/25 11:08:38;;;;;;;1.40;1.30;;;;;;;25.74;50.73;96386.47;5080286;28;20220;-30
2023/07/25 11:11:06;;;;;;;2.70;1.30;;;;;;;25.73;50.26;96387.34;5062803;28;20207;-27
2023/07/25 11:13:34;;;;;;;2.40;1.30;;;;;;;25.75;50.58;96379.63;5072106;28;20204;-27
2023/07/25 11:16:01;;;;;;;1.43;1.30;;;;;;;25.75;50.80;96383.03;5072788;28;20627;-27
2023/07/25 11:18:27;;;;;;;1.50;1.37;;;;;;;25.75;50.55;96387.34;5067499;28;20197;-27
2023/07/25 11:20:58;;;;;;;1.57;1.43;;;;;;;25.74;50.74;96375.31;5064929;28;20288;-27
2023/07/25 11:23:25;;;;;;;1.40;1.30;;;;;;;25.75;50.79;96379.63;5059974;28;20204;-27
2023/07/25 11:25:58;;;;;;;1.70;1.47;;;;;;;25.73;50.67;96386.50;5076620;28;20217;-27
2023/07/25 11:28:28;;;;;;;1.27;1.17;;;;;;;25.74;50.81;96391.63;5073124;28;20600;-27
2023/07/25 11:30:55;;;;;;;1.30;1.20;;;;;;;25.74;50.97;96383.03;5065727;28;20303;-28
2023/07/25 11:33:22;;;;;;;1.85;1.30;;;;;;;25.76;50.74;96389.06;5084075;28;20223;-27
2023/07/25 11:35:52;;;;;;;1.40;1.30;;;;;;;25.75;51.04;96385.63;5067289;28;20212;-28